sensor_id;sensor_type;location;lat;lon;timestamp;pressure;altitude;pressure_sealevel;temperature;humidity
48606;BME280;8482;54.396;18.590;2023-02-22T07:08:41;101817.63;;;3.66;71.00
48606;BME280;8482;54.396;18.590;2023-02-22T07:11:07;101828.88;;;3.70;71.55
48606;BME280;8482;54.396;18.590;2023-02-22T07:13:33;101824.50;;;3.70;71.18
48606;BME280;8482;54.396;18.590;2023-02-22T07:15:59;101838.28;;;3.77;71.23
48606;BME280;8482;54.396;18.590;2023-02-22T07:18:25;101822.63;;;3.74;71.07
48606;BME280;8482;54.396;18.590;2023-02-22T07:20:51;101832.97;;;3.78;70.73
48606;BME280;8482;54.396;18.590;2023-02-22T07:23:17;101832.75;;;3.84;70.81
48606;BME280;8482;54.396;18.590;2023-02-22T07:25:43;101837.09;;;3.86;71.08
48606;BME280;8482;54.396;18.590;2023-02-22T07:28:10;101836.16;;;3.88;70.91
48606;BME280;8482;54.396;18.590;2023-02-22T07:30:36;101832.50;;;3.92;70.98
48606;BME280;8482;54.396;18.590;2023-02-22T07:33:11;101835.94;;;3.94;70.53
48606;BME280;8482;54.396;18.590;2023-02-22T07:35:49;101842.88;;;3.97;70.67
48606;BME280;8482;54.396;18.590;2023-02-22T07:38:17;101835.75;;;4.01;70.46
48606;BME280;8482;54.396;18.590;2023-02-22T07:40:45;101828.03;;;3.96;70.59
48606;BME280;8482;54.396;18.590;2023-02-22T07:43:22;101843.41;;;4.07;70.41
48606;BME280;8482;54.396;18.590;2023-02-22T07:45:50;101847.69;;;4.09;70.35
48606;BME280;8482;54.396;18.590;2023-02-22T07:48:18;101857.16;;;4.13;69.88
48606;BME280;8482;54.396;18.590;2023-02-22T07:50:45;101848.44;;;4.13;69.24
48606;BME280;8482;54.396;18.590;2023-02-22T07:53:24;101850.16;;;4.14;68.55
48606;BME280;8482;54.396;18.590;2023-02-22T07:55:50;101843.28;;;4.10;67.66
48606;BME280;8482;54.396;18.590;2023-02-22T07:58:20;101859.69;;;4.17;67.71
48606;BME280;8482;54.396;18.590;2023-02-22T08:00:46;101858.78;;;4.18;67.39
48606;BME280;8482;54.396;18.590;2023-02-22T08:03:18;101856.09;;;4.19;67.21
48606;BME280;8482;54.396;18.590;2023-02-22T08:05:48;101860.50;;;4.19;66.32
48606;BME280;8482;54.396;18.590;2023-02-22T08:08:15;101852.66;;;4.17;65.61
48606;BME280;8482;54.396;18.590;2023-02-22T08:10:42;101865.84;;;4.16;65.72
48606;BME280;8482;54.396;18.590;2023-02-22T08:13:09;101851.91;;;4.13;65.73
48606;BME280;8482;54.396;18.590;2023-02-22T08:15:39;101857.88;;;4.19;66.06
48606;BME280;8482;54.396;18.590;2023-02-22T08:18:10;101860.44;;;4.20;66.11
48606;BME280;8482;54.396;18.590;2023-02-22T08:20:39;101868.13;;;4.26;65.70
48606;BME280;8482;54.396;18.590;2023-02-22T08:23:06;101860.19;;;4.28;65.65
48606;BME280;8482;54.396;18.590;2023-02-22T08:25:33;101864.38;;;4.34;65.88
48606;BME280;8482;54.396;18.590;2023-02-22T08:28:03;101864.34;;;4.35;65.59
48606;BME280;8482;54.396;18.590;2023-02-22T08:30:33;101869.41;;;4.40;65.47
48606;BME280;8482;54.396;18.590;2023-02-22T08:33:01;101859.72;;;4.42;64.96
48606;BME280;8482;54.396;18.590;2023-02-22T08:35:30;101858.03;;;4.39;64.72
48606;BME280;8482;54.396;18.590;2023-02-22T08:38:04;101864.91;;;4.43;64.34
48606;BME280;8482;54.396;18.590;2023-02-22T08:40:34;101855.25;;;4.44;63.92
48606;BME280;8482;54.396;18.590;2023-02-22T08:43:00;101866.56;;;4.46;63.54
48606;BME280;8482;54.396;18.590;2023-02-22T08:45:27;101854.41;;;4.43;64.04
48606;BME280;8482;54.396;18.590;2023-02-22T08:47:53;101852.63;;;4.44;64.21
48606;BME280;8482;54.396;18.590;2023-02-22T08:50:24;101863.66;;;4.54;63.93
48606;BME280;8482;54.396;18.590;2023-02-22T08:52:53;101854.94;;;4.53;63.84
48606;BME280;8482;54.396;18.590;2023-02-22T08:55:26;101858.31;;;4.57;63.89
48606;BME280;8482;54.396;18.590;2023-02-22T08:57:53;101846.97;;;4.55;64.11
48606;BME280;8482;54.396;18.590;2023-02-22T09:00:22;101865.91;;;4.65;63.39
48606;BME280;8482;54.396;18.590;2023-02-22T09:02:51;101867.53;;;4.69;63.44
48606;BME280;8482;54.396;18.590;2023-02-22T09:05:17;101870.91;;;4.72;63.42
48606;BME280;8482;54.396;18.590;2023-02-22T09:07:44;101856.06;;;4.70;63.41
48606;BME280;8482;54.396;18.590;2023-02-22T09:10:21;101865.53;;;4.75;63.55
48606;BME280;8482;54.396;18.590;2023-02-22T09:12:50;101864.56;;;4.78;62.85
48606;BME280;8482;54.396;18.590;2023-02-22T09:15:17;101863.69;;;4.78;62.54
48606;BME280;8482;54.396;18.590;2023-02-22T09:17:44;101860.94;;;4.81;62.39
48606;BME280;8482;54.396;18.590;2023-02-22T09:20:10;101862.50;;;4.86;62.17
48606;BME280;8482;54.396;18.590;2023-02-22T09:22:37;101860.78;;;4.85;62.23
48606;BME280;8482;54.396;18.590;2023-02-22T09:25:05;101866.81;;;4.89;61.74
48606;BME280;8482;54.396;18.590;2023-02-22T09:27:31;101870.19;;;4.91;60.69
48606;BME280;8482;54.396;18.590;2023-02-22T09:29:57;101869.28;;;4.92;61.70
48606;BME280;8482;54.396;18.590;2023-02-22T09:32:24;101870.19;;;4.91;61.10
48606;BME280;8482;54.396;18.590;2023-02-22T09:34:53;101872.69;;;4.96;61.21
48606;BME280;8482;54.396;18.590;2023-02-22T09:37:20;101878.78;;;4.96;60.56
48606;BME280;8482;54.396;18.590;2023-02-22T09:39:46;101877.25;;;4.90;60.51
48606;BME280;8482;54.396;18.590;2023-02-22T09:42:47;101881.59;;;4.91;60.25
48606;BME280;8482;54.396;18.590;2023-02-22T09:48:16;101885.03;;;4.94;60.47
48606;BME280;8482;54.396;18.590;2023-02-22T09:50:45;101885.03;;;4.94;60.22
48606;BME280;8482;54.396;18.590;2023-02-22T09:53:34;101886.75;;;4.95;60.14
48606;BME280;8482;54.396;18.590;2023-02-22T09:56:11;101885.88;;;4.94;60.15
48606;BME280;8482;54.396;18.590;2023-02-22T09:58:44;101886.78;;;4.93;60.09
48606;BME280;8482;54.396;18.590;2023-02-22T10:01:35;101892.03;;;4.93;59.81
48606;BME280;8482;54.396;18.590;2023-02-22T10:04:21;101885.84;;;4.96;60.16
48606;BME280;8482;54.396;18.590;2023-02-22T10:09:52;101892.91;;;4.94;59.33
48606;BME280;8482;54.396;18.590;2023-02-22T10:15:59;101900.03;;;4.90;58.45
48606;BME280;8482;54.396;18.590;2023-02-22T10:23:43;101902.84;;;4.85;59.09
48606;BME280;8482;54.396;18.590;2023-02-22T10:26:21;101908.91;;;4.87;59.32
48606;BME280;8482;54.396;18.590;2023-02-22T10:31:40;101898.50;;;4.84;60.23
48606;BME280;8482;54.396;18.590;2023-02-22T10:34:25;101913.25;;;4.88;59.98
48606;BME280;8482;54.396;18.590;2023-02-22T10:37:28;101912.44;;;4.86;60.54
48606;BME280;8482;54.396;18.590;2023-02-22T10:40:17;101922.13;;;4.86;61.40
48606;BME280;8482;54.396;18.590;2023-02-22T10:42:45;101912.72;;;4.79;62.80
48606;BME280;8482;54.396;18.590;2023-02-22T10:45:25;101913.59;;;4.79;63.20
48606;BME280;8482;54.396;18.590;2023-02-22T10:47:54;101923.50;;;4.71;63.93
48606;BME280;8482;54.396;18.590;2023-02-22T10:50:27;101921.19;;;4.63;64.43
48606;BME280;8482;54.396;18.590;2023-02-22T10:52:54;101926.38;;;4.65;65.40
48606;BME280;8482;54.396;18.590;2023-02-22T10:55:21;101921.19;;;4.63;66.25
48606;BME280;8482;54.396;18.590;2023-02-22T10:57:57;101910.88;;;4.57;66.09
48606;BME280;8482;54.396;18.590;2023-02-22T11:00:38;101912.50;;;4.59;65.93
48606;BME280;8482;54.396;18.590;2023-02-22T11:03:21;101914.41;;;4.56;66.89
48606;BME280;8482;54.396;18.590;2023-02-22T11:05:48;101918.00;;;4.53;67.37
48606;BME280;8482;54.396;18.590;2023-02-22T11:10:47;101913.81;;;4.48;66.85
48606;BME280;8482;54.396;18.590;2023-02-22T11:13:37;101915.53;;;4.49;67.31
48606;BME280;8482;54.396;18.590;2023-02-22T11:16:38;101917.13;;;4.53;67.68
48606;BME280;8482;54.396;18.590;2023-02-22T11:21:41;101921.31;;;4.58;67.87
48606;BME280;8482;54.396;18.590;2023-02-22T11:24:12;101921.94;;;4.65;67.34
48606;BME280;8482;54.396;18.590;2023-02-22T11:26:46;101926.25;;;4.68;67.44
48606;BME280;8482;54.396;18.590;2023-02-22T11:29:34;101923.41;;;4.74;67.48
48606;BME280;8482;54.396;18.590;2023-02-22T11:32:16;101920.66;;;4.77;66.89
48606;BME280;8482;54.396;18.590;2023-02-22T11:34:47;101924.09;;;4.79;66.38
48606;BME280;8482;54.396;18.590;2023-02-22T11:37:32;101915.31;;;4.80;66.21
48606;BME280;8482;54.396;18.590;2023-02-22T11:40:16;101927.28;;;4.89;66.34
48606;BME280;8482;54.396;18.590;2023-02-22T11:42:46;101919.25;;;4.92;66.92
48606;BME280;8482;54.396;18.590;2023-02-22T11:45:21;101920.88;;;4.96;66.44
48606;BME280;8482;54.396;18.590;2023-02-22T11:48:00;101922.50;;;4.99;66.17
48606;BME280;8482;54.396;18.590;2023-02-22T11:56:38;101922.19;;;5.08;64.57
48606;BME280;8482;54.396;18.590;2023-02-22T12:05:11;101930.72;;;5.15;63.29
48606;BME280;8482;54.396;18.590;2023-02-22T12:08:37;101929.00;;;5.14;63.06
48606;BME280;8482;54.396;18.590;2023-02-22T12:14:46;101925.28;;;5.19;62.76
48606;BME280;8482;54.396;18.590;2023-02-22T12:17:28;101929.63;;;5.20;62.75
48606;BME280;8482;54.396;18.590;2023-02-22T12:20:05;101917.38;;;5.19;62.66
48606;BME280;8482;54.396;18.590;2023-02-22T12:22:46;101920.69;;;5.25;63.69
48606;BME280;8482;54.396;18.590;2023-02-22T12:25:22;101933.72;;;5.28;63.53
48606;BME280;8482;54.396;18.590;2023-02-22T12:28:02;101931.91;;;5.30;63.49
48606;BME280;8482;54.396;18.590;2023-02-22T12:30:41;101920.47;;;5.31;63.05
48606;BME280;8482;54.396;18.590;2023-02-22T12:33:22;101917.91;;;5.29;63.22
48606;BME280;8482;54.396;18.590;2023-02-22T12:35:56;101927.50;;;5.30;62.93
48606;BME280;8482;54.396;18.590;2023-02-22T12:38:36;101920.53;;;5.29;62.62
48606;BME280;8482;54.396;18.590;2023-02-22T12:41:41;101925.72;;;5.31;63.27
48606;BME280;8482;54.396;18.590;2023-02-22T12:44:17;101916.94;;;5.32;63.08
48606;BME280;8482;54.396;18.590;2023-02-22T12:46:56;101927.38;;;5.33;62.99
48606;BME280;8482;54.396;18.590;2023-02-22T12:52:45;101928.19;;;5.35;61.32
48606;BME280;8482;54.396;18.590;2023-02-22T12:55:20;101933.50;;;5.34;61.33
48606;BME280;8482;54.396;18.590;2023-02-22T12:58:22;101927.44;;;5.32;60.92
48606;BME280;8482;54.396;18.590;2023-02-22T13:01:06;101935.34;;;5.32;61.46
48606;BME280;8482;54.396;18.590;2023-02-22T13:03:43;101931.84;;;5.31;61.24
48606;BME280;8482;54.396;18.590;2023-02-22T13:15:56;101928.69;;;5.45;62.19
48606;BME280;8482;54.396;18.590;2023-02-22T13:18:36;101940.03;;;5.47;61.58
48606;BME280;8482;54.396;18.590;2023-02-22T13:21:44;101936.59;;;5.45;60.78
48606;BME280;8482;54.396;18.590;2023-02-22T13:24:31;101928.63;;;5.47;61.51
48606;BME280;8482;54.396;18.590;2023-02-22T13:27:09;101929.44;;;5.49;61.08
48606;BME280;8482;54.396;18.590;2023-02-22T13:29:45;101929.34;;;5.50;60.79
48606;BME280;8482;54.396;18.590;2023-02-22T13:52:46;101933.69;;;5.29;59.96
48606;BME280;8482;54.396;18.590;2023-02-22T13:55:25;101938.88;;;5.31;60.52
48606;BME280;8482;54.396;18.590;2023-02-22T13:58:09;101947.63;;;5.31;60.67
48606;BME280;8482;54.396;18.590;2023-02-22T14:00:54;101943.34;;;5.29;60.55
48606;BME280;8482;54.396;18.590;2023-02-22T14:03:37;101944.31;;;5.26;60.71
48606;BME280;8482;54.396;18.590;2023-02-22T14:06:10;101933.19;;;5.19;60.80
48606;BME280;8482;54.396;18.590;2023-02-22T14:08:56;101941.00;;;5.21;61.56
48606;BME280;8482;54.396;18.590;2023-02-22T14:16:26;101948.25;;;5.14;61.76
48606;BME280;8482;54.396;18.590;2023-02-22T14:19:15;101945.72;;;5.11;61.54
48606;BME280;8482;54.396;18.590;2023-02-22T14:22:02;101944.16;;;5.07;62.05
48606;BME280;8482;54.396;18.590;2023-02-22T14:24:44;101945.00;;;5.07;62.12
48606;BME280;8482;54.396;18.590;2023-02-22T14:27:17;101939.91;;;5.03;62.06
48606;BME280;8482;54.396;18.590;2023-02-22T14:29:54;101937.28;;;5.03;62.87
48606;BME280;8482;54.396;18.590;2023-02-22T14:32:31;101954.88;;;5.01;62.25
48606;BME280;8482;54.396;18.590;2023-02-22T14:35:04;101942.63;;;5.00;63.03
48606;BME280;8482;54.396;18.590;2023-02-22T14:37:37;101941.91;;;4.96;62.21
48606;BME280;8482;54.396;18.590;2023-02-22T14:40:28;101927.41;;;4.84;62.36
48606;BME280;8482;54.396;18.590;2023-02-22T14:43:12;101914.72;;;4.72;62.01
48606;BME280;8482;54.396;18.590;2023-02-22T14:46:09;101950.06;;;4.88;61.87
48606;BME280;8482;54.396;18.590;2023-02-22T14:48:40;101943.19;;;4.84;61.62
48606;BME280;8482;54.396;18.590;2023-02-22T14:51:20;101949.31;;;4.85;62.34
48606;BME280;8482;54.396;18.590;2023-02-22T14:54:34;101948.50;;;4.83;62.01
48606;BME280;8482;54.396;18.590;2023-02-22T14:57:19;101948.69;;;4.78;62.49
48606;BME280;8482;54.396;18.590;2023-02-22T15:00:17;101945.34;;;4.73;61.98
48606;BME280;8482;54.396;18.590;2023-02-22T15:02:50;101948.94;;;4.70;62.08
48606;BME280;8482;54.396;18.590;2023-02-22T15:05:22;101947.28;;;4.68;61.76
48606;BME280;8482;54.396;18.590;2023-02-22T15:08:00;101939.44;;;4.66;61.88
48606;BME280;8482;54.396;18.590;2023-02-22T15:10:41;101942.97;;;4.65;62.26
48606;BME280;8482;54.396;18.590;2023-02-22T15:13:26;101937.88;;;4.60;62.61
48606;BME280;8482;54.396;18.590;2023-02-22T15:16:03;101937.06;;;4.58;62.19
48606;BME280;8482;54.396;18.590;2023-02-22T15:18:39;101932.25;;;4.46;62.44
48606;BME280;8482;54.396;18.590;2023-02-22T15:21:12;101943.47;;;4.51;62.95
48606;BME280;8482;54.396;18.590;2023-02-22T15:24:02;101952.25;;;4.50;62.98
48606;BME280;8482;54.396;18.590;2023-02-22T15:26:41;101950.53;;;4.49;63.41
48606;BME280;8482;54.396;18.590;2023-02-22T15:29:35;101957.59;;;4.49;63.75
48606;BME280;8482;54.396;18.590;2023-02-22T15:32:19;101949.78;;;4.45;63.96
48606;BME280;8482;54.396;18.590;2023-02-22T15:34:45;101951.78;;;4.39;64.67
48606;BME280;8482;54.396;18.590;2023-02-22T15:37:23;101965.72;;;4.41;65.31
48606;BME280;8482;54.396;18.590;2023-02-22T15:39:51;101960.66;;;4.35;66.19
48606;BME280;8482;54.396;18.590;2023-02-22T15:42:27;101959.97;;;4.29;67.14
48606;BME280;8482;54.396;18.590;2023-02-22T15:44:55;101966.31;;;4.22;67.29
48606;BME280;8482;54.396;18.590;2023-02-22T15:47:30;101951.25;;;4.01;67.63
48606;BME280;8482;54.396;18.590;2023-02-22T15:50:27;101964.25;;;4.05;68.64
48606;BME280;8482;54.396;18.590;2023-02-22T15:53:03;101974.03;;;4.00;68.99
48606;BME280;8482;54.396;18.590;2023-02-22T15:55:41;101973.41;;;3.92;69.45
48606;BME280;8482;54.396;18.590;2023-02-22T15:58:20;101977.13;;;3.84;69.62
48606;BME280;8482;54.396;18.590;2023-02-22T16:03:38;101965.34;;;3.70;71.14
48606;BME280;8482;54.396;18.590;2023-02-22T16:06:32;101966.63;;;3.56;70.93
48606;BME280;8482;54.396;18.590;2023-02-22T16:09:12;101971.28;;;3.46;71.43
48606;BME280;8482;54.396;18.590;2023-02-22T16:11:47;101978.31;;;3.44;72.23
48606;BME280;8482;54.396;18.590;2023-02-22T16:22:48;101989.16;;;3.33;72.94
48606;BME280;8482;54.396;18.590;2023-02-22T16:28:26;101995.22;;;3.34;73.41
48606;BME280;8482;54.396;18.590;2023-02-22T16:30:59;101992.75;;;3.29;73.26
48606;BME280;8482;54.396;18.590;2023-02-22T16:33:25;101992.75;;;3.29;73.21
48606;BME280;8482;54.396;18.590;2023-02-22T16:35:57;102005.84;;;3.29;72.88
48606;BME280;8482;54.396;18.590;2023-02-22T16:38:31;101999.72;;;3.30;72.63
48606;BME280;8482;54.396;18.590;2023-02-22T16:40:57;102001.44;;;3.31;72.83
48606;BME280;8482;54.396;18.590;2023-02-22T16:43:29;101992.75;;;3.29;71.99
48606;BME280;8482;54.396;18.590;2023-02-22T16:46:02;101997.00;;;3.33;71.53
48606;BME280;8482;54.396;18.590;2023-02-22T16:48:31;101996.13;;;3.33;71.70
48606;BME280;8482;54.396;18.590;2023-02-22T16:51:24;101998.69;;;3.36;71.54
48606;BME280;8482;54.396;18.590;2023-02-22T16:53:55;101997.00;;;3.33;71.08
48606;BME280;8482;54.396;18.590;2023-02-22T16:56:31;102002.19;;;3.36;70.95
48606;BME280;8482;54.396;18.590;2023-02-22T16:59:08;102012.63;;;3.38;70.37
48606;BME280;8482;54.396;18.590;2023-02-22T17:01:34;101998.59;;;3.39;70.22
48606;BME280;8482;54.396;18.590;2023-02-22T17:04:00;102012.56;;;3.40;70.19
48606;BME280;8482;54.396;18.590;2023-02-22T17:06:26;102009.00;;;3.42;69.81
48606;BME280;8482;54.396;18.590;2023-02-22T17:08:54;102012.56;;;3.40;69.49
48606;BME280;8482;54.396;18.590;2023-02-22T17:11:20;102015.03;;;3.44;69.29
48606;BME280;8482;54.396;18.590;2023-02-22T17:13:46;102014.19;;;3.44;69.75
48606;BME280;8482;54.396;18.590;2023-02-22T17:16:16;102015.91;;;3.45;69.13
48606;BME280;8482;54.396;18.590;2023-02-22T17:18:42;102012.41;;;3.44;69.47
48606;BME280;8482;54.396;18.590;2023-02-22T17:21:10;102000.19;;;3.45;69.16
48606;BME280;8482;54.396;18.590;2023-02-22T17:23:39;101995.97;;;3.39;68.98
48606;BME280;8482;54.396;18.590;2023-02-22T17:26:06;102006.28;;;3.45;68.87
48606;BME280;8482;54.396;18.590;2023-02-22T17:28:35;102010.66;;;3.45;69.28
48606;BME280;8482;54.396;18.590;2023-02-22T17:31:01;102011.41;;;3.50;68.89
48606;BME280;8482;54.396;18.590;2023-02-22T17:33:31;102004.44;;;3.49;68.70
48606;BME280;8482;54.396;18.590;2023-02-22T17:35:59;102007.06;;;3.49;67.96
48606;BME280;8482;54.396;18.590;2023-02-22T17:38:28;102000.94;;;3.48;68.57
48606;BME280;8482;54.396;18.590;2023-02-22T17:40:59;102006.19;;;3.48;67.86
48606;BME280;8482;54.396;18.590;2023-02-22T17:43:29;102015.78;;;3.49;68.18
48606;BME280;8482;54.396;18.590;2023-02-22T17:45:55;102013.16;;;3.49;67.94
48606;BME280;8482;54.396;18.590;2023-02-22T17:48:21;102007.91;;;3.49;67.39
48606;BME280;8482;54.396;18.590;2023-02-22T17:50:48;102004.56;;;3.44;67.85
48606;BME280;8482;54.396;18.590;2023-02-22T17:53:15;102019.28;;;3.50;67.48
48606;BME280;8482;54.396;18.590;2023-02-22T17:55:46;102016.66;;;3.50;67.68
48606;BME280;8482;54.396;18.590;2023-02-22T17:58:13;102012.31;;;3.49;67.30
48606;BME280;8482;54.396;18.590;2023-02-22T18:00:46;102009.63;;;3.50;67.30
48606;BME280;8482;54.396;18.590;2023-02-22T18:03:16;102009.63;;;3.50;67.13
48606;BME280;8482;54.396;18.590;2023-02-22T18:05:48;102009.63;;;3.50;67.66
48606;BME280;8482;54.396;18.590;2023-02-22T18:08:15;102006.94;;;3.53;67.85
48606;BME280;8482;54.396;18.590;2023-02-22T18:10:43;102000.03;;;3.49;67.68
48606;BME280;8482;54.396;18.590;2023-02-22T18:13:17;102005.22;;;3.52;67.50
48606;BME280;8482;54.396;18.590;2023-02-22T18:15:44;102008.72;;;3.51;67.10
48606;BME280;8482;54.396;18.590;2023-02-22T18:18:11;101999.13;;;3.50;66.50
48606;BME280;8482;54.396;18.590;2023-02-22T18:20:41;102013.06;;;3.52;66.50
48606;BME280;8482;54.396;18.590;2023-02-22T18:23:13;102014.81;;;3.52;66.38
48606;BME280;8482;54.396;18.590;2023-02-22T18:25:46;101989.00;;;3.38;66.38
48606;BME280;8482;54.396;18.590;2023-02-22T18:28:18;102009.63;;;3.50;65.77
48606;BME280;8482;54.396;18.590;2023-02-22T18:30:45;102002.59;;;3.51;66.04
48606;BME280;8482;54.396;18.590;2023-02-22T18:33:12;102010.47;;;3.51;65.98
48606;BME280;8482;54.396;18.590;2023-02-22T18:35:48;102006.16;;;3.50;66.35
48606;BME280;8482;54.396;18.590;2023-02-22T18:38:19;101997.63;;;3.43;65.71
48606;BME280;8482;54.396;18.590;2023-02-22T18:40:58;102011.41;;;3.50;66.01
48606;BME280;8482;54.396;18.590;2023-02-22T18:43:25;102000.09;;;3.48;66.17
48606;BME280;8482;54.396;18.590;2023-02-22T18:45:51;101986.19;;;3.44;65.84
48606;BME280;8482;54.396;18.590;2023-02-22T18:48:17;102001.84;;;3.47;66.07
48606;BME280;8482;54.396;18.590;2023-02-22T18:50:43;102001.81;;;3.49;65.51
48606;BME280;8482;54.396;18.590;2023-02-22T18:53:09;102002.66;;;3.49;65.19
48606;BME280;8482;54.396;18.590;2023-02-22T18:55:35;101990.44;;;3.50;65.58
48606;BME280;8482;54.396;18.590;2023-02-22T18:58:03;101984.31;;;3.49;64.77
48606;BME280;8482;54.396;18.590;2023-02-22T19:00:36;101986.94;;;3.49;64.67
48606;BME280;8482;54.396;18.590;2023-02-22T19:03:03;101989.59;;;3.48;63.61
48606;BME280;8482;54.396;18.590;2023-02-22T19:05:30;101991.31;;;3.49;63.35
48606;BME280;8482;54.396;18.590;2023-02-22T19:07:57;101988.69;;;3.49;63.89
48606;BME280;8482;54.396;18.590;2023-02-22T19:10:23;101989.59;;;3.48;63.71
48606;BME280;8482;54.396;18.590;2023-02-22T19:12:49;101993.97;;;3.47;63.74
48606;BME280;8482;54.396;18.590;2023-02-22T19:15:15;101987.81;;;3.48;63.70
48606;BME280;8482;54.396;18.590;2023-02-22T19:17:41;101990.44;;;3.48;62.90
48606;BME280;8482;54.396;18.590;2023-02-22T19:20:07;101992.16;;;3.49;63.40
48606;BME280;8482;54.396;18.590;2023-02-22T19:22:36;101996.56;;;3.49;63.34
48606;BME280;8482;54.396;18.590;2023-02-22T19:25:03;101994.78;;;3.49;62.93
48606;BME280;8482;54.396;18.590;2023-02-22T19:27:29;101989.59;;;3.48;63.04
48606;BME280;8482;54.396;18.590;2023-02-22T19:29:56;101989.53;;;3.49;63.06
48606;BME280;8482;54.396;18.590;2023-02-22T19:32:23;101985.19;;;3.48;62.57
48606;BME280;8482;54.396;18.590;2023-02-22T19:34:53;101983.53;;;3.46;62.29
48606;BME280;8482;54.396;18.590;2023-02-22T19:37:28;101986.09;;;3.47;62.16
48606;BME280;8482;54.396;18.590;2023-02-22T19:40:04;101980.84;;;3.47;62.29
48606;BME280;8482;54.396;18.590;2023-02-22T19:42:34;101980.00;;;3.47;62.53
48606;BME280;8482;54.396;18.590;2023-02-22T19:45:00;101977.38;;;3.47;62.27
48606;BME280;8482;54.396;18.590;2023-02-22T19:47:26;101977.38;;;3.47;62.19
48606;BME280;8482;54.396;18.590;2023-02-22T19:49:52;101978.31;;;3.44;62.63
48606;BME280;8482;54.396;18.590;2023-02-22T19:52:18;101976.56;;;3.45;62.14
48606;BME280;8482;54.396;18.590;2023-02-22T19:54:44;101977.47;;;3.44;61.76
48606;BME280;8482;54.396;18.590;2023-02-22T19:57:10;101980.94;;;3.44;61.12
48606;BME280;8482;54.396;18.590;2023-02-22T19:59:37;101977.56;;;3.41;61.60
48606;BME280;8482;54.396;18.590;2023-02-22T20:02:03;101988.88;;;3.43;61.00
48606;BME280;8482;54.396;18.590;2023-02-22T20:04:29;101982.81;;;3.41;60.72
48606;BME280;8482;54.396;18.590;2023-02-22T20:06:56;101969.81;;;3.36;60.76
48606;BME280;8482;54.396;18.590;2023-02-22T20:09:29;101976.72;;;3.38;60.78
48606;BME280;8482;54.396;18.590;2023-02-22T20:12:02;101965.44;;;3.36;60.63
48606;BME280;8482;54.396;18.590;2023-02-22T20:14:29;101946.66;;;3.20;60.77
48606;BME280;8482;54.396;18.590;2023-02-22T20:16:57;101973.28;;;3.38;60.59
48606;BME280;8482;54.396;18.590;2023-02-22T20:19:23;101978.56;;;3.36;59.66
48606;BME280;8482;54.396;18.590;2023-02-22T20:21:53;101977.63;;;3.37;59.43
48606;BME280;8482;54.396;18.590;2023-02-22T20:24:23;101975.06;;;3.36;59.94
48606;BME280;8482;54.396;18.590;2023-02-22T20:26:50;101981.19;;;3.36;59.43
48606;BME280;8482;54.396;18.590;2023-02-22T20:29:20;101983.84;;;3.35;59.55
48606;BME280;8482;54.396;18.590;2023-02-22T20:31:55;101977.69;;;3.36;59.37
48606;BME280;8482;54.396;18.590;2023-02-22T20:34:23;101981.28;;;3.33;60.09
48606;BME280;8482;54.396;18.590;2023-02-22T20:36:49;101979.41;;;3.37;59.79
48606;BME280;8482;54.396;18.590;2023-02-22T20:39:15;101979.41;;;3.37;60.49
48606;BME280;8482;54.396;18.590;2023-02-22T20:41:43;101962.94;;;3.32;59.87
48606;BME280;8482;54.396;18.590;2023-02-22T20:44:14;101977.63;;;3.37;60.04
48606;BME280;8482;54.396;18.590;2023-02-22T20:46:41;101968.91;;;3.37;59.97
48606;BME280;8482;54.396;18.590;2023-02-22T20:49:11;101971.53;;;3.37;60.36
48606;BME280;8482;54.396;18.590;2023-02-22T20:51:38;101968.88;;;3.38;60.73
48606;BME280;8482;54.396;18.590;2023-02-22T20:54:05;101973.22;;;3.40;60.38
48606;BME280;8482;54.396;18.590;2023-02-22T20:56:33;101974.09;;;3.38;60.48
48606;BME280;8482;54.396;18.590;2023-02-22T20:59:02;101974.09;;;3.38;60.38
48606;BME280;8482;54.396;18.590;2023-02-22T21:01:29;101964.50;;;3.39;60.85
48606;BME280;8482;54.396;18.590;2023-02-22T21:04:01;101965.44;;;3.36;60.63
48606;BME280;8482;54.396;18.590;2023-02-22T21:06:28;101974.16;;;3.37;60.64
48606;BME280;8482;54.396;18.590;2023-02-22T21:08:58;101968.88;;;3.38;60.00
48606;BME280;8482;54.396;18.590;2023-02-22T21:11:28;101975.88;;;3.38;59.70
48606;BME280;8482;54.396;18.590;2023-02-22T21:13:55;101968.03;;;3.38;60.05
48606;BME280;8482;54.396;18.590;2023-02-22T21:16:32;101967.16;;;3.37;59.71
48606;BME280;8482;54.396;18.590;2023-02-22T21:19:05;101970.69;;;3.36;59.23
48606;BME280;8482;54.396;18.590;2023-02-22T21:21:33;101971.53;;;3.37;59.29
48606;BME280;8482;54.396;18.590;2023-02-22T21:24:00;101976.72;;;3.38;59.82
48606;BME280;8482;54.396;18.590;2023-02-22T21:26:32;101979.34;;;3.38;60.38
48606;BME280;8482;54.396;18.590;2023-02-22T21:29:01;101965.53;;;3.33;60.29
48606;BME280;8482;54.396;18.590;2023-02-22T21:31:28;101976.72;;;3.40;60.81
48606;BME280;8482;54.396;18.590;2023-02-22T21:33:58;101956.78;;;3.33;60.65
48606;BME280;8482;54.396;18.590;2023-02-22T21:36:26;101976.72;;;3.40;61.25
48606;BME280;8482;54.396;18.590;2023-02-22T21:38:57;101967.06;;;3.41;61.14
48606;BME280;8482;54.396;18.590;2023-02-22T21:41:27;101976.63;;;3.43;61.97
48606;BME280;8482;54.396;18.590;2023-02-22T21:43:56;101967.06;;;3.41;62.08
48606;BME280;8482;54.396;18.590;2023-02-22T21:46:27;101975.81;;;3.41;61.98
48606;BME280;8482;54.396;18.590;2023-02-22T21:48:55;101965.34;;;3.40;62.74
48606;BME280;8482;54.396;18.590;2023-02-22T21:51:26;101961.91;;;3.37;62.79
48606;BME280;8482;54.396;18.590;2023-02-22T21:54:02;101967.97;;;3.40;62.32
48606;BME280;8482;54.396;18.590;2023-02-22T21:56:33;101956.84;;;3.31;63.31
48606;BME280;8482;54.396;18.590;2023-02-22T21:59:15;101975.94;;;3.36;62.96
48606;BME280;8482;54.396;18.590;2023-02-22T22:01:53;101969.88;;;3.34;63.80
48606;BME280;8482;54.396;18.590;2023-02-22T22:04:28;101960.38;;;3.30;63.90
48606;BME280;8482;54.396;18.590;2023-02-22T22:06:58;101968.16;;;3.33;64.03
48606;BME280;8482;54.396;18.590;2023-02-22T22:09:27;101962.94;;;3.32;64.49